sensor_id;sensor_type;location;lat;lon;timestamp;pressure;altitude;pressure_sealevel;temperature;humidity
34124;BME280;13153;52.316;21.166;2023-06-26T00:00:13;100339.06;;;22.37;54.04
34124;BME280;13153;52.316;21.166;2023-06-26T00:02:40;100340.78;;;22.39;54.19
34124;BME280;13153;52.316;21.166;2023-06-26T00:05:06;100338.09;;;22.39;53.72
34124;BME280;13153;52.316;21.166;2023-06-26T00:07:32;100331.06;;;22.34;54.05
34124;BME280;13153;52.316;21.166;2023-06-26T00:10:00;100334.72;;;22.31;54.00
34124;BME280;13153;52.316;21.166;2023-06-26T00:12:26;100333.88;;;22.28;54.23
34124;BME280;13153;52.316;21.166;2023-06-26T00:14:52;100335.75;;;22.24;54.00
34124;BME280;13153;52.316;21.166;2023-06-26T00:17:18;100343.03;;;22.18;53.94
34124;BME280;13153;52.316;21.166;2023-06-26T00:19:44;100335.94;;;22.15;54.14
34124;BME280;13153;52.316;21.166;2023-06-26T00:22:11;100338.63;;;22.15;54.24
34124;BME280;13153;52.316;21.166;2023-06-26T00:24:36;100333.28;;;22.15;54.03
34124;BME280;13153;52.316;21.166;2023-06-26T00:27:02;100330.66;;;22.12;53.86
34124;BME280;13153;52.316;21.166;2023-06-26T00:29:28;100344.13;;;22.09;53.89
34124;BME280;13153;52.316;21.166;2023-06-26T00:31:54;100343.31;;;22.05;53.85
34124;BME280;13153;52.316;21.166;2023-06-26T00:34:19;100338.81;;;22.06;53.81
34124;BME280;13153;52.316;21.166;2023-06-26T00:36:45;100336.25;;;22.00;53.86
34124;BME280;13153;52.316;21.166;2023-06-26T00:39:11;100340.00;;;21.93;54.14
34124;BME280;13153;52.316;21.166;2023-06-26T00:41:37;100342.81;;;21.85;54.04
34124;BME280;13153;52.316;21.166;2023-06-26T00:44:07;100338.47;;;21.80;54.37
34124;BME280;13153;52.316;21.166;2023-06-26T00:46:34;100340.34;;;21.74;54.16
34124;BME280;13153;52.316;21.166;2023-06-26T00:49:02;100340.41;;;21.71;54.09
34124;BME280;13153;52.316;21.166;2023-06-26T00:51:30;100334.25;;;21.68;54.50
34124;BME280;13153;52.316;21.166;2023-06-26T00:53:57;100330.75;;;21.64;54.12
34124;BME280;13153;52.316;21.166;2023-06-26T00:56:23;100331.66;;;21.63;54.18
34124;BME280;13153;52.316;21.166;2023-06-26T00:58:49;100332.50;;;21.65;54.09
34124;BME280;13153;52.316;21.166;2023-06-26T01:01:15;100330.72;;;21.66;54.27
34124;BME280;13153;52.316;21.166;2023-06-26T01:03:48;100328.84;;;21.69;54.54
34124;BME280;13153;52.316;21.166;2023-06-26T01:06:19;100321.69;;;21.70;54.23
34124;BME280;13153;52.316;21.166;2023-06-26T01:08:46;100328.94;;;21.65;54.59
34124;BME280;13153;52.316;21.166;2023-06-26T01:11:14;100326.38;;;21.59;54.77
34124;BME280;13153;52.316;21.166;2023-06-26T01:13:42;100322.00;;;21.55;54.75
34124;BME280;13153;52.316;21.166;2023-06-26T01:16:12;100318.41;;;21.56;54.44
34124;BME280;13153;52.316;21.166;2023-06-26T01:18:41;100324.69;;;21.55;54.35
34124;BME280;13153;52.316;21.166;2023-06-26T01:21:09;100317.53;;;21.55;54.33
34124;BME280;13153;52.316;21.166;2023-06-26T01:26:21;100314.78;;;21.58;54.54
34124;BME280;13153;52.316;21.166;2023-06-26T01:28:50;100316.59;;;21.58;54.21
34124;BME280;13153;52.316;21.166;2023-06-26T01:31:17;100305.97;;;21.53;54.01
34124;BME280;13153;52.316;21.166;2023-06-26T01:33:46;100309.59;;;21.51;54.17
34124;BME280;13153;52.316;21.166;2023-06-26T01:36:13;100312.31;;;21.48;54.09
34124;BME280;13153;52.316;21.166;2023-06-26T01:38:39;100306.19;;;21.41;53.99
34124;BME280;13153;52.316;21.166;2023-06-26T01:41:06;100307.22;;;21.35;54.06
34124;BME280;13153;52.316;21.166;2023-06-26T01:44:10;100313.66;;;21.25;54.48
34124;BME280;13153;52.316;21.166;2023-06-26T01:46:53;100309.28;;;21.18;54.70
34124;BME280;13153;52.316;21.166;2023-06-26T01:49:33;100304.03;;;21.12;54.94
34124;BME280;13153;52.316;21.166;2023-06-26T01:52:23;100306.00;;;21.02;55.34
34124;BME280;13153;52.316;21.166;2023-06-26T01:55:09;100301.69;;;20.94;54.99
34124;BME280;13153;52.316;21.166;2023-06-26T01:57:38;100304.50;;;20.86;54.74
34124;BME280;13153;52.316;21.166;2023-06-26T02:00:07;100290.31;;;20.81;55.15
34124;BME280;13153;52.316;21.166;2023-06-26T02:02:36;100294.75;;;20.82;55.38
34124;BME280;13153;52.316;21.166;2023-06-26T02:05:02;100293.84;;;20.83;55.03
34124;BME280;13153;52.316;21.166;2023-06-26T02:07:28;100287.56;;;20.86;54.98
34124;BME280;13153;52.316;21.166;2023-06-26T02:09:54;100292.03;;;20.85;54.90
34124;BME280;13153;52.316;21.166;2023-06-26T02:12:20;100304.53;;;20.83;54.70
34124;BME280;13153;52.316;21.166;2023-06-26T02:14:45;100308.03;;;20.87;54.41
34124;BME280;13153;52.316;21.166;2023-06-26T02:17:11;100292.91;;;20.86;54.33
34124;BME280;13153;52.316;21.166;2023-06-26T02:19:37;100299.19;;;20.83;54.28
34124;BME280;13153;52.316;21.166;2023-06-26T02:22:10;100293.06;;;20.78;54.50
34124;BME280;13153;52.316;21.166;2023-06-26T02:24:36;100301.09;;;20.78;54.55
34124;BME280;13153;52.316;21.166;2023-06-26T02:27:02;100301.09;;;20.78;54.26
34124;BME280;13153;52.316;21.166;2023-06-26T02:29:27;100298.41;;;20.78;54.88
34124;BME280;13153;52.316;21.166;2023-06-26T02:31:53;100295.78;;;20.75;54.86
34124;BME280;13153;52.316;21.166;2023-06-26T02:34:19;100297.53;;;20.77;54.51
34124;BME280;13153;52.316;21.166;2023-06-26T02:36:45;100287.59;;;20.84;54.38
34124;BME280;13153;52.316;21.166;2023-06-26T02:39:10;100283.00;;;20.91;53.97
34124;BME280;13153;52.316;21.166;2023-06-26T02:41:36;100285.47;;;21.03;54.45
34124;BME280;13153;52.316;21.166;2023-06-26T02:44:02;100287.97;;;21.14;54.36
34124;BME280;13153;52.316;21.166;2023-06-26T02:46:28;100287.84;;;21.23;53.56
34124;BME280;13153;52.316;21.166;2023-06-26T02:48:53;100291.19;;;21.34;52.71
34124;BME280;13153;52.316;21.166;2023-06-26T02:51:19;100291.94;;;21.40;52.29
34124;BME280;13153;52.316;21.166;2023-06-26T02:53:45;100284.59;;;21.50;52.01
34124;BME280;13153;52.316;21.166;2023-06-26T02:56:10;100284.44;;;21.58;51.65
34124;BME280;13153;52.316;21.166;2023-06-26T02:58:36;100292.22;;;21.71;51.53
34124;BME280;13153;52.316;21.166;2023-06-26T03:01:02;100285.78;;;21.80;50.82
34124;BME280;13153;52.316;21.166;2023-06-26T03:03:28;100282.88;;;21.91;50.71
34124;BME280;13153;52.316;21.166;2023-06-26T03:05:54;100279.81;;;22.09;50.32
34124;BME280;13153;52.316;21.166;2023-06-26T03:08:19;100283.88;;;22.27;49.89
34124;BME280;13153;52.316;21.166;2023-06-26T03:10:45;100286.06;;;22.48;49.49
34124;BME280;13153;52.316;21.166;2023-06-26T03:13:11;100286.31;;;22.73;48.68
34124;BME280;13153;52.316;21.166;2023-06-26T03:15:37;100284.81;;;22.98;48.50
34124;BME280;13153;52.316;21.166;2023-06-26T03:18:02;100286.84;;;23.23;47.89
34124;BME280;13153;52.316;21.166;2023-06-26T03:20:28;100289.81;;;23.45;47.17
34124;BME280;13153;52.316;21.166;2023-06-26T03:22:54;100284.59;;;23.71;46.59
34124;BME280;13153;52.316;21.166;2023-06-26T03:25:19;100284.69;;;23.99;46.28
34124;BME280;13153;52.316;21.166;2023-06-26T03:27:45;100281.25;;;24.23;45.83
34124;BME280;13153;52.316;21.166;2023-06-26T03:30:12;100285.13;;;24.43;46.06
34124;BME280;13153;52.316;21.166;2023-06-26T03:32:37;100286.06;;;24.69;44.91
34124;BME280;13153;52.316;21.166;2023-06-26T03:35:03;100290.53;;;24.95;44.57
34124;BME280;13153;52.316;21.166;2023-06-26T03:37:29;100294.22;;;25.19;44.09
34124;BME280;13153;52.316;21.166;2023-06-26T03:39:55;100287.22;;;25.40;43.53
34124;BME280;13153;52.316;21.166;2023-06-26T03:42:21;100293.56;;;25.62;43.18
34124;BME280;13153;52.316;21.166;2023-06-26T03:44:47;100286.47;;;25.85;42.69
34124;BME280;13153;52.316;21.166;2023-06-26T03:47:13;100284.75;;;26.06;42.68
34124;BME280;13153;52.316;21.166;2023-06-26T03:49:39;100295.53;;;26.29;42.28
34124;BME280;13153;52.316;21.166;2023-06-26T03:52:05;100295.06;;;26.63;41.84
34124;BME280;13153;52.316;21.166;2023-06-26T03:54:31;100298.38;;;26.91;41.40
34124;BME280;13153;52.316;21.166;2023-06-26T03:56:59;100297.00;;;27.23;40.99
34124;BME280;13153;52.316;21.166;2023-06-26T03:59:25;100298.28;;;27.55;40.29
34124;BME280;13153;52.316;21.166;2023-06-26T04:01:51;100298.38;;;27.93;39.82
34124;BME280;13153;52.316;21.166;2023-06-26T04:04:16;100287.44;;;28.34;38.83
34124;BME280;13153;52.316;21.166;2023-06-26T04:06:42;100289.97;;;28.74;37.98
34124;BME280;13153;52.316;21.166;2023-06-26T04:09:08;100292.81;;;29.24;37.62
34124;BME280;13153;52.316;21.166;2023-06-26T04:11:34;100294.41;;;29.96;36.44
34124;BME280;13153;52.316;21.166;2023-06-26T04:13:59;100299.47;;;30.82;35.26
34124;BME280;13153;52.316;21.166;2023-06-26T04:16:25;100297.97;;;31.67;33.53
34124;BME280;13153;52.316;21.166;2023-06-26T04:18:52;100299.59;;;32.55;31.96
34124;BME280;13153;52.316;21.166;2023-06-26T04:21:18;100304.41;;;33.32;30.95
34124;BME280;13153;52.316;21.166;2023-06-26T04:23:45;100315.50;;;34.06;29.14
34124;BME280;13153;52.316;21.166;2023-06-26T04:26:11;100309.38;;;34.65;28.72
34124;BME280;13153;52.316;21.166;2023-06-26T04:28:40;100313.94;;;35.01;28.18
34124;BME280;13153;52.316;21.166;2023-06-26T04:31:06;100315.38;;;34.94;28.43
34124;BME280;13153;52.316;21.166;2023-06-26T04:33:32;100312.59;;;34.70;28.69
34124;BME280;13153;52.316;21.166;2023-06-26T04:35:58;100303.75;;;34.66;29.16
34124;BME280;13153;52.316;21.166;2023-06-26T04:38:23;100311.38;;;34.87;28.76
34124;BME280;13153;52.316;21.166;2023-06-26T04:40:49;100310.19;;;35.61;28.40
34124;BME280;13153;52.316;21.166;2023-06-26T04:43:15;100318.72;;;36.47;27.27
34124;BME280;13153;52.316;21.166;2023-06-26T04:45:41;100317.88;;;37.33;25.94
34124;BME280;13153;52.316;21.166;2023-06-26T04:48:07;100316.31;;;38.03;25.05
34124;BME280;13153;52.316;21.166;2023-06-26T04:50:33;100317.25;;;38.53;24.41
34124;BME280;13153;52.316;21.166;2023-06-26T04:52:59;100315.09;;;39.06;23.67
34124;BME280;13153;52.316;21.166;2023-06-26T04:55:25;100327.56;;;39.49;24.13
34124;BME280;13153;52.316;21.166;2023-06-26T04:57:51;100326.44;;;39.98;23.31
34124;BME280;13153;52.316;21.166;2023-06-26T05:00:18;100326.94;;;40.21;22.41
34124;BME280;13153;52.316;21.166;2023-06-26T05:02:44;100325.31;;;40.38;22.51
34124;BME280;13153;52.316;21.166;2023-06-26T05:05:09;100331.59;;;40.85;22.61
34124;BME280;13153;52.316;21.166;2023-06-26T05:07:36;100323.66;;;40.72;22.68
34124;BME280;13153;52.316;21.166;2023-06-26T05:10:02;100324.25;;;41.11;21.76
34124;BME280;13153;52.316;21.166;2023-06-26T05:12:28;100328.72;;;41.83;20.99
34124;BME280;13153;52.316;21.166;2023-06-26T05:14:54;100322.25;;;42.01;20.83
34124;BME280;13153;52.316;21.166;2023-06-26T05:17:20;100320.13;;;42.46;20.05
34124;BME280;13153;52.316;21.166;2023-06-26T05:19:46;100324.31;;;42.59;20.34
34124;BME280;13153;52.316;21.166;2023-06-26T05:22:13;100318.31;;;42.79;19.63
34124;BME280;13153;52.316;21.166;2023-06-26T05:24:40;100315.06;;;42.84;20.03
34124;BME280;13153;52.316;21.166;2023-06-26T05:27:07;100316.97;;;42.92;19.97
34124;BME280;13153;52.316;21.166;2023-06-26T05:29:33;100320.69;;;43.49;19.68
34124;BME280;13153;52.316;21.166;2023-06-26T05:32:00;100325.66;;;44.10;19.01
34124;BME280;13153;52.316;21.166;2023-06-26T05:34:27;100321.47;;;44.62;19.00
34124;BME280;13153;52.316;21.166;2023-06-26T05:37:01;100316.94;;;44.69;18.51
34124;BME280;13153;52.316;21.166;2023-06-26T05:39:27;100316.47;;;44.57;18.18
34124;BME280;13153;52.316;21.166;2023-06-26T05:41:53;100312.84;;;44.57;18.44
34124;BME280;13153;52.316;21.166;2023-06-26T05:44:19;100314.41;;;44.51;18.68
34124;BME280;13153;52.316;21.166;2023-06-26T05:46:46;100307.34;;;44.40;18.40
34124;BME280;13153;52.316;21.166;2023-06-26T05:49:11;100306.75;;;44.92;18.28
34124;BME280;13153;52.316;21.166;2023-06-26T05:51:37;100313.75;;;44.88;18.10
34124;BME280;13153;52.316;21.166;2023-06-26T05:54:04;100308.53;;;44.85;17.90
34124;BME280;13153;52.316;21.166;2023-06-26T05:56:30;100301.22;;;44.92;17.73
34124;BME280;13153;52.316;21.166;2023-06-26T05:58:57;100306.75;;;44.92;17.83
34124;BME280;13153;52.316;21.166;2023-06-26T06:01:23;100296.09;;;45.04;18.04
34124;BME280;13153;52.316;21.166;2023-06-26T06:03:50;100303.06;;;45.23;18.58
34124;BME280;13153;52.316;21.166;2023-06-26T06:06:16;100293.88;;;45.45;18.35
34124;BME280;13153;52.316;21.166;2023-06-26T06:08:42;100302.88;;;45.24;18.08
34124;BME280;13153;52.316;21.166;2023-06-26T06:11:08;100299.88;;;45.34;18.06
34124;BME280;13153;52.316;21.166;2023-06-26T06:13:34;100300.66;;;45.42;17.38
34124;BME280;13153;52.316;21.166;2023-06-26T06:16:00;100295.06;;;45.28;17.88
34124;BME280;13153;52.316;21.166;2023-06-26T06:18:26;100296.22;;;45.33;17.95
34124;BME280;13153;52.316;21.166;2023-06-26T06:20:51;100296.34;;;45.40;18.22
34124;BME280;13153;52.316;21.166;2023-06-26T06:23:18;100292.44;;;45.03;17.40
34124;BME280;13153;52.316;21.166;2023-06-26T06:25:44;100288.84;;;44.64;18.55
34124;BME280;13153;52.316;21.166;2023-06-26T06:28:09;100287.56;;;44.83;18.94
34124;BME280;13153;52.316;21.166;2023-06-26T06:30:35;100285.66;;;44.75;18.70
34124;BME280;13153;52.316;21.166;2023-06-26T06:33:01;100288.91;;;44.87;18.23
34124;BME280;13153;52.316;21.166;2023-06-26T06:35:27;100278.63;;;44.95;18.21
34124;BME280;13153;52.316;21.166;2023-06-26T06:37:53;100283.44;;;45.24;18.20
34124;BME280;13153;52.316;21.166;2023-06-26T06:40:19;100287.16;;;45.54;17.26
34124;BME280;13153;52.316;21.166;2023-06-26T06:42:47;100287.13;;;45.77;18.34
34124;BME280;13153;52.316;21.166;2023-06-26T06:45:13;100281.13;;;46.03;17.41
34124;BME280;13153;52.316;21.166;2023-06-26T06:47:38;100283.97;;;46.24;17.62
34124;BME280;13153;52.316;21.166;2023-06-26T06:50:05;100283.78;;;46.26;17.38
34124;BME280;13153;52.316;21.166;2023-06-26T06:52:38;100282.72;;;46.27;17.02
34124;BME280;13153;52.316;21.166;2023-06-26T06:55:07;100273.13;;;46.29;17.12
34124;BME280;13153;52.316;21.166;2023-06-26T06:57:39;100279.28;;;46.54;17.02
34124;BME280;13153;52.316;21.166;2023-06-26T07:00:08;100277.94;;;46.50;16.24
34124;BME280;13153;52.316;21.166;2023-06-26T07:02:36;100273.03;;;46.52;16.14
34124;BME280;13153;52.316;21.166;2023-06-26T07:05:04;100274.13;;;46.07;16.83
34124;BME280;13153;52.316;21.166;2023-06-26T07:07:32;100270.69;;;46.05;16.81
34124;BME280;13153;52.316;21.166;2023-06-26T07:10:05;100275.44;;;46.26;16.76
34124;BME280;13153;52.316;21.166;2023-06-26T07:12:31;100266.31;;;46.32;15.60
34124;BME280;13153;52.316;21.166;2023-06-26T07:14:57;100266.81;;;46.35;16.33
34124;BME280;13153;52.316;21.166;2023-06-26T07:17:23;100263.81;;;46.52;16.68
34124;BME280;13153;52.316;21.166;2023-06-26T07:19:50;100268.78;;;46.71;16.51
34124;BME280;13153;52.316;21.166;2023-06-26T07:22:16;100267.22;;;46.68;15.58
34124;BME280;13153;52.316;21.166;2023-06-26T07:24:41;100263.66;;;46.38;15.59
34124;BME280;13153;52.316;21.166;2023-06-26T07:27:07;100264.97;;;45.84;15.81
34124;BME280;13153;52.316;21.166;2023-06-26T07:29:33;100263.72;;;45.71;16.14
34124;BME280;13153;52.316;21.166;2023-06-26T07:31:59;100262.47;;;45.59;16.27
34124;BME280;13153;52.316;21.166;2023-06-26T07:34:25;100261.06;;;45.63;16.29
34124;BME280;13153;52.316;21.166;2023-06-26T07:36:50;100260.63;;;45.66;16.69
34124;BME280;13153;52.316;21.166;2023-06-26T07:39:16;100261.94;;;45.41;15.99
34124;BME280;13153;52.316;21.166;2023-06-26T07:41:42;100267.31;;;45.20;16.34
34124;BME280;13153;52.316;21.166;2023-06-26T07:44:08;100260.53;;;44.99;16.23
34124;BME280;13153;52.316;21.166;2023-06-26T07:46:33;100257.19;;;44.81;17.26
34124;BME280;13153;52.316;21.166;2023-06-26T07:48:59;100246.03;;;44.19;17.17
34124;BME280;13153;52.316;21.166;2023-06-26T07:51:25;100256.59;;;43.68;17.76
34124;BME280;13153;52.316;21.166;2023-06-26T07:53:50;100251.06;;;43.20;18.77
34124;BME280;13153;52.316;21.166;2023-06-26T07:56:17;100241.34;;;42.83;18.24
34124;BME280;13153;52.316;21.166;2023-06-26T07:58:42;100248.03;;;42.22;19.13
34124;BME280;13153;52.316;21.166;2023-06-26T08:01:08;100239.44;;;41.65;19.25
34124;BME280;13153;52.316;21.166;2023-06-26T08:03:34;100238.50;;;41.13;19.56
34124;BME280;13153;52.316;21.166;2023-06-26T08:06:00;100237.19;;;40.81;20.54
34124;BME280;13153;52.316;21.166;2023-06-26T08:08:26;100241.78;;;40.18;21.36
34124;BME280;13153;52.316;21.166;2023-06-26T08:10:51;100233.81;;;39.12;22.22
34124;BME280;13153;52.316;21.166;2023-06-26T08:13:17;100231.94;;;38.24;23.87
34124;BME280;13153;52.316;21.166;2023-06-26T08:15:43;100228.84;;;37.56;25.97
34124;BME280;13153;52.316;21.166;2023-06-26T08:18:09;100228.91;;;36.83;24.47
34124;BME280;13153;52.316;21.166;2023-06-26T08:20:34;100227.56;;;36.34;25.96
34124;BME280;13153;52.316;21.166;2023-06-26T08:23:03;100230.53;;;35.97;25.99
34124;BME280;13153;52.316;21.166;2023-06-26T08:25:29;100222.69;;;35.70;26.34
34124;BME280;13153;52.316;21.166;2023-06-26T08:27:55;100230.50;;;35.41;25.96
34124;BME280;13153;52.316;21.166;2023-06-26T08:30:21;100230.03;;;35.13;26.78
34124;BME280;13153;52.316;21.166;2023-06-26T08:32:47;100233.69;;;34.89;27.99
34124;BME280;13153;52.316;21.166;2023-06-26T08:35:13;100228.50;;;34.73;28.92
34124;BME280;13153;52.316;21.166;2023-06-26T08:37:39;100224.63;;;34.65;29.28
34124;BME280;13153;52.316;21.166;2023-06-26T08:40:07;100222.75;;;34.65;28.53
34124;BME280;13153;52.316;21.166;2023-06-26T08:42:33;100214.03;;;34.60;29.01
34124;BME280;13153;52.316;21.166;2023-06-26T08:44:59;100225.56;;;34.53;29.14
34124;BME280;13153;52.316;21.166;2023-06-26T08:47:25;100218.97;;;34.55;28.58
34124;BME280;13153;52.316;21.166;2023-06-26T08:50:12;100213.41;;;34.68;26.79
34124;BME280;13153;52.316;21.166;2023-06-26T08:52:56;100215.03;;;34.83;26.86
34124;BME280;13153;52.316;21.166;2023-06-26T08:55:28;100218.97;;;35.14;26.48
34124;BME280;13153;52.316;21.166;2023-06-26T08:57:54;100219.03;;;35.36;26.12
34124;BME280;13153;52.316;21.166;2023-06-26T09:00:20;100211.84;;;35.47;25.72
34124;BME280;13153;52.316;21.166;2023-06-26T09:02:46;100209.09;;;35.47;24.70
34124;BME280;13153;52.316;21.166;2023-06-26T09:05:12;100212.53;;;35.26;25.39
34124;BME280;13153;52.316;21.166;2023-06-26T09:07:38;100213.72;;;35.00;26.41
34124;BME280;13153;52.316;21.166;2023-06-26T09:10:04;100213.72;;;34.76;26.86
34124;BME280;13153;52.316;21.166;2023-06-26T09:12:31;100210.03;;;34.53;26.66
34124;BME280;13153;52.316;21.166;2023-06-26T09:14:57;100204.50;;;34.29;26.32
34124;BME280;13153;52.316;21.166;2023-06-26T09:17:33;100207.47;;;34.02;26.92
34124;BME280;13153;52.316;21.166;2023-06-26T09:20:04;100205.84;;;33.74;27.34
34124;BME280;13153;52.316;21.166;2023-06-26T09:22:36;100198.09;;;33.56;28.32
34124;BME280;13153;52.316;21.166;2023-06-26T09:25:05;100193.84;;;33.64;28.71
34124;BME280;13153;52.316;21.166;2023-06-26T09:27:31;100193.41;;;33.83;26.68
34124;BME280;13153;52.316;21.166;2023-06-26T09:29:57;100192.94;;;34.02;25.92
34124;BME280;13153;52.316;21.166;2023-06-26T09:32:24;100184.56;;;34.16;25.96
34124;BME280;13153;52.316;21.166;2023-06-26T09:34:53;100189.44;;;34.24;25.58
34124;BME280;13153;52.316;21.166;2023-06-26T09:37:21;100188.47;;;34.25;25.07
34124;BME280;13153;52.316;21.166;2023-06-26T09:39:50;100188.34;;;34.26;26.12
34124;BME280;13153;52.316;21.166;2023-06-26T09:42:16;100182.06;;;34.13;26.84
34124;BME280;13153;52.316;21.166;2023-06-26T09:44:46;100191.53;;;33.96;27.46
34124;BME280;13153;52.316;21.166;2023-06-26T09:47:15;100189.13;;;33.79;27.89
34124;BME280;13153;52.316;21.166;2023-06-26T09:49:42;100188.47;;;33.63;27.75
34124;BME280;13153;52.316;21.166;2023-06-26T09:52:09;100185.91;;;33.49;28.40
34124;BME280;13153;52.316;21.166;2023-06-26T09:54:36;100190.06;;;33.41;28.27
34124;BME280;13153;52.316;21.166;2023-06-26T09:57:09;100188.31;;;33.40;29.13
34124;BME280;13153;52.316;21.166;2023-06-26T09:59:36;100184.81;;;33.38;29.32
34124;BME280;13153;52.316;21.166;2023-06-26T10:02:03;100179.56;;;33.35;29.59
34124;BME280;13153;52.316;21.166;2023-06-26T10:04:29;100175.44;;;33.42;28.49
34124;BME280;13153;52.316;21.166;2023-06-26T10:06:56;100173.19;;;33.60;27.93
34124;BME280;13153;52.316;21.166;2023-06-26T10:09:24;100172.66;;;33.81;26.62
34124;BME280;13153;52.316;21.166;2023-06-26T10:12:03;100175.47;;;33.92;25.80
34124;BME280;13153;52.316;21.166;2023-06-26T10:14:35;100164.97;;;33.98;25.98
34124;BME280;13153;52.316;21.166;2023-06-26T10:17:15;100165.22;;;33.95;23.92
34124;BME280;13153;52.316;21.166;2023-06-26T10:19:44;100156.47;;;33.90;24.01
34124;BME280;13153;52.316;21.166;2023-06-26T10:22:15;100152.22;;;33.86;25.91
34124;BME280;13153;52.316;21.166;2023-06-26T10:24:45;100151.59;;;33.83;25.56
34124;BME280;13153;52.316;21.166;2023-06-26T10:27:25;100148.09;;;33.68;25.54
34124;BME280;13153;52.316;21.166;2023-06-26T10:30:02;100142.47;;;33.45;25.62
34124;BME280;13153;52.316;21.166;2023-06-26T10:32:29;100149.69;;;33.34;27.32
34124;BME280;13153;52.316;21.166;2023-06-26T10:34:56;100146.63;;;33.38;27.60
34124;BME280;13153;52.316;21.166;2023-06-26T10:37:45;100146.72;;;33.50;28.10
34124;BME280;13153;52.316;21.166;2023-06-26T10:40:13;100145.69;;;33.63;27.21
34124;BME280;13153;52.316;21.166;2023-06-26T10:42:40;100132.78;;;33.78;27.24
34124;BME280;13153;52.316;21.166;2023-06-26T10:45:36;100141.38;;;33.97;25.97
34124;BME280;13153;52.316;21.166;2023-06-26T10:48:02;100143.44;;;34.06;26.24
34124;BME280;13153;52.316;21.166;2023-06-26T10:50:32;100137.31;;;34.03;25.81
34124;BME280;13153;52.316;21.166;2023-06-26T10:56:05;100122.84;;;33.90;26.41
34124;BME280;13153;52.316;21.166;2023-06-26T11:03:41;100123.59;;;33.79;26.41
34124;BME280;13153;52.316;21.166;2023-06-26T11:06:18;100118.38;;;33.89;27.45
34124;BME280;13153;52.316;21.166;2023-06-26T11:08:48;100128.38;;;34.01;26.54
34124;BME280;13153;52.316;21.166;2023-06-26T11:11:14;100119.97;;;34.04;25.31
34124;BME280;13153;52.316;21.166;2023-06-26T11:13:41;100114.44;;;33.93;25.09
34124;BME280;13153;52.316;21.166;2023-06-26T11:16:07;100115.28;;;33.93;26.34
34124;BME280;13153;52.316;21.166;2023-06-26T11:18:33;100117.91;;;33.95;26.11
34124;BME280;13153;52.316;21.166;2023-06-26T11:21:11;100105.06;;;33.84;24.39
34124;BME280;13153;52.316;21.166;2023-06-26T11:23:40;100098.50;;;33.74;24.63
34124;BME280;13153;52.316;21.166;2023-06-26T11:26:20;100096.91;;;33.59;25.43
34124;BME280;13153;52.316;21.166;2023-06-26T11:28:56;100096.41;;;33.41;25.26
34124;BME280;13153;52.316;21.166;2023-06-26T11:31:33;100094.88;;;33.24;25.37
34124;BME280;13153;52.316;21.166;2023-06-26T11:34:02;100099.34;;;33.25;26.33
34124;BME280;13153;52.316;21.166;2023-06-26T11:36:30;100090.53;;;33.34;28.01
34124;BME280;13153;52.316;21.166;2023-06-26T11:38:58;100095.00;;;33.48;27.38
34124;BME280;13153;52.316;21.166;2023-06-26T11:41:27;100089.28;;;33.51;24.57
34124;BME280;13153;52.316;21.166;2023-06-26T11:43:54;100098.69;;;33.47;24.67
34124;BME280;13153;52.316;21.166;2023-06-26T11:46:22;100094.13;;;33.47;25.29
34124;BME280;13153;52.316;21.166;2023-06-26T11:48:48;100085.28;;;33.44;23.21
34124;BME280;13153;52.316;21.166;2023-06-26T11:51:15;100084.19;;;33.46;24.08
34124;BME280;13153;52.316;21.166;2023-06-26T11:53:43;100083.22;;;33.47;23.91
34124;BME280;13153;52.316;21.166;2023-06-26T11:56:17;100080.25;;;33.51;24.85
34124;BME280;13153;52.316;21.166;2023-06-26T11:59:06;100084.25;;;33.58;25.19
34124;BME280;13153;52.316;21.166;2023-06-26T12:01:34;100082.28;;;33.60;24.91
34124;BME280;13153;52.316;21.166;2023-06-26T12:04:09;100081.41;;;33.59;25.52
34124;BME280;13153;52.316;21.166;2023-06-26T12:06:38;100073.44;;;33.56;25.77
34124;BME280;13153;52.316;21.166;2023-06-26T12:09:07;100075.91;;;33.48;25.35
34124;BME280;13153;52.316;21.166;2023-06-26T12:11:37;100066.53;;;33.39;25.30
34124;BME280;13153;52.316;21.166;2023-06-26T12:14:08;100077.53;;;33.38;26.09
34124;BME280;13153;52.316;21.166;2023-06-26T12:16:36;100074.72;;;33.39;25.64
34124;BME280;13153;52.316;21.166;2023-06-26T12:19:04;100061.50;;;33.33;25.00
34124;BME280;13153;52.316;21.166;2023-06-26T12:21:45;100067.06;;;33.44;24.56
34124;BME280;13153;52.316;21.166;2023-06-26T12:24:18;100061.66;;;33.56;25.55
34124;BME280;13153;52.316;21.166;2023-06-26T12:26:46;100057.25;;;33.66;25.60
34124;BME280;13153;52.316;21.166;2023-06-26T12:29:16;100057.78;;;33.71;24.93
34124;BME280;13153;52.316;21.166;2023-06-26T12:31:52;100060.28;;;33.74;25.42
34124;BME280;13153;52.316;21.166;2023-06-26T12:34:21;100063.78;;;33.76;25.65
34124;BME280;13153;52.316;21.166;2023-06-26T12:36:50;100064.88;;;33.73;25.10
34124;BME280;13153;52.316;21.166;2023-06-26T12:39:19;100053.47;;;33.56;24.23
34124;BME280;13153;52.316;21.166;2023-06-26T12:42:00;100056.06;;;33.33;24.77
34124;BME280;13153;52.316;21.166;2023-06-26T12:44:28;100055.28;;;33.19;25.69
34124;BME280;13153;52.316;21.166;2023-06-26T12:46:58;100057.91;;;33.07;26.46
34124;BME280;13153;52.316;21.166;2023-06-26T12:49:38;100045.03;;;32.97;27.33
34124;BME280;13153;52.316;21.166;2023-06-26T12:52:08;100042.03;;;32.89;27.78
34124;BME280;13153;52.316;21.166;2023-06-26T12:54:35;100039.63;;;32.84;28.61